Strona główna
METAR-TAF:

METAR-TAF

Lotnisko :

Reims, Francja

Szerokość geograficzna: 49-12-31N, Długość geograficzna: 004-09-24E, wysokość: 95 m

Aktualna obserwacja pogody

Raport powstał 23 minut temu, godzina 21:00 UTC
Wiatr 5 kt od południowo-południowy wschód
Temperatura 2°C
Wilgotność 93%
Ciśnienie 997 hPa
Widzialność 10 km lub więcej
Przerywane chmury na wysokości 1000 ft
Zachmurzenie całkowite na wysokości 2600 ft

METAR: LFQA 242100Z AUTO 16005KT 9999 BKN010 OVC026 02/01 Q0997

czas: 22:23 (21:23 UTC)


TAF: brakujący

Obserwacja i prognoza pogody dla ponad 4000 lotnisk (raport METAR i TAF).

Dostępne stacje oznaczono żółtymi i czerwonymi punktami na mapie.

Najedź kursorem aby zobaczyć nazwę stacji.

Kliknij aby zobaczyć obserwacje i prognozy pogody.

Aby zmienić mapę: kliknij na zielony przycisk z czarnym krzyżykiem, aby powiększyć; na zielony przycisk z myślnikiem, aby pomniejszyć; na zielone strzałki, aby przejść do map sąsiednich.


METAR-TAF: